sensor_id;sensor_type;location;lat;lon;timestamp;pressure;altitude;pressure_sealevel;temperature;humidity
60874;BME280;46715;40.642;-7.920;2023-03-22T00:00:57;96385.06;;;12.03;100.00
60874;BME280;46715;40.642;-7.920;2023-03-22T00:02:58;96381.88;;;12.06;100.00
60874;BME280;46715;40.642;-7.920;2023-03-22T00:04:59;96381.34;;;12.09;100.00
60874;BME280;46715;40.642;-7.920;2023-03-22T00:06:59;96377.22;;;12.03;100.00
60874;BME280;46715;40.642;-7.920;2023-03-22T00:09:00;96370.38;;;12.07;100.00
60874;BME280;46715;40.642;-7.920;2023-03-22T00:11:02;96371.13;;;12.13;100.00
60874;BME280;46715;40.642;-7.920;2023-03-22T00:13:05;96361.25;;;12.04;100.00
60874;BME280;46715;40.642;-7.920;2023-03-22T00:15:07;96361.44;;;12.13;100.00
60874;BME280;46715;40.642;-7.920;2023-03-22T00:17:09;96359.97;;;12.31;100.00
60874;BME280;46715;40.642;-7.920;2023-03-22T00:19:11;96352.72;;;12.23;100.00
60874;BME280;46715;40.642;-7.920;2023-03-22T00:21:15;96352.53;;;12.19;100.00
60874;BME280;46715;40.642;-7.920;2023-03-22T00:23:16;96354.69;;;12.12;100.00
60874;BME280;46715;40.642;-7.920;2023-03-22T00:25:17;96366.63;;;12.18;100.00
60874;BME280;46715;40.642;-7.920;2023-03-22T00:27:18;96364.34;;;12.11;100.00
60874;BME280;46715;40.642;-7.920;2023-03-22T00:29:19;96364.88;;;12.08;100.00
60874;BME280;46715;40.642;-7.920;2023-03-22T00:31:21;96362.56;;;12.02;100.00
60874;BME280;46715;40.642;-7.920;2023-03-22T00:33:22;96366.47;;;12.04;100.00
60874;BME280;46715;40.642;-7.920;2023-03-22T00:35:23;96359.41;;;12.05;100.00
60874;BME280;46715;40.642;-7.920;2023-03-22T00:37:24;96367.25;;;12.05;100.00
60874;BME280;46715;40.642;-7.920;2023-03-22T00:39:27;96363.03;;;12.09;100.00
60874;BME280;46715;40.642;-7.920;2023-03-22T00:41:27;96362.16;;;12.24;100.00
60874;BME280;46715;40.642;-7.920;2023-03-22T00:43:28;96366.34;;;12.20;100.00
60874;BME280;46715;40.642;-7.920;2023-03-22T00:45:29;96364.56;;;12.15;100.00
60874;BME280;46715;40.642;-7.920;2023-03-22T00:47:30;96356.63;;;12.25;100.00
60874;BME280;46715;40.642;-7.920;2023-03-22T00:49:31;96352.06;;;12.12;100.00
60874;BME280;46715;40.642;-7.920;2023-03-22T00:51:32;96351.09;;;12.03;100.00
60874;BME280;46715;40.642;-7.920;2023-03-22T00:53:36;96345.09;;;12.02;100.00
60874;BME280;46715;40.642;-7.920;2023-03-22T00:55:37;96339.06;;;12.02;100.00
60874;BME280;46715;40.642;-7.920;2023-03-22T00:57:38;96332.81;;;11.98;100.00
60874;BME280;46715;40.642;-7.920;2023-03-22T00:59:40;96339.84;;;12.02;100.00
60874;BME280;46715;40.642;-7.920;2023-03-22T01:01:42;96333.03;;;12.06;100.00
60874;BME280;46715;40.642;-7.920;2023-03-22T01:03:43;96333.28;;;12.05;100.00
60874;BME280;46715;40.642;-7.920;2023-03-22T01:05:48;96323.44;;;11.97;100.00
60874;BME280;46715;40.642;-7.920;2023-03-22T01:07:49;96323.44;;;11.97;100.00
60874;BME280;46715;40.642;-7.920;2023-03-22T01:09:50;96319.53;;;11.94;100.00
60874;BME280;46715;40.642;-7.920;2023-03-22T01:11:51;96314.72;;;12.06;100.00
60874;BME280;46715;40.642;-7.920;2023-03-22T01:13:53;96316.00;;;12.09;100.00
60874;BME280;46715;40.642;-7.920;2023-03-22T01:15:55;96325.81;;;11.88;100.00
60874;BME280;46715;40.642;-7.920;2023-03-22T01:17:56;96320.94;;;11.76;100.00
60874;BME280;46715;40.642;-7.920;2023-03-22T01:19:57;96317.53;;;11.75;100.00
60874;BME280;46715;40.642;-7.920;2023-03-22T01:21:58;96307.63;;;11.77;100.00
60874;BME280;46715;40.642;-7.920;2023-03-22T01:23:59;96307.63;;;11.72;100.00
60874;BME280;46715;40.642;-7.920;2023-03-22T01:26:00;96312.13;;;11.67;100.00
60874;BME280;46715;40.642;-7.920;2023-03-22T01:28:01;96313.16;;;11.66;100.00
60874;BME280;46715;40.642;-7.920;2023-03-22T01:30:03;96310.63;;;11.55;100.00
60874;BME280;46715;40.642;-7.920;2023-03-22T01:32:04;96308.56;;;11.52;100.00
60874;BME280;46715;40.642;-7.920;2023-03-22T01:34:06;96310.09;;;11.58;100.00
60874;BME280;46715;40.642;-7.920;2023-03-22T01:36:07;96306.47;;;11.54;100.00
60874;BME280;46715;40.642;-7.920;2023-03-22T01:38:11;96308.53;;;11.57;100.00
60874;BME280;46715;40.642;-7.920;2023-03-22T01:40:21;96307.75;;;11.57;100.00
60874;BME280;46715;40.642;-7.920;2023-03-22T01:42:24;96307.47;;;11.58;100.00
60874;BME280;46715;40.642;-7.920;2023-03-22T01:44:29;96305.97;;;11.52;100.00
60874;BME280;46715;40.642;-7.920;2023-03-22T01:53:34;96298.34;;;11.56;100.00
60874;BME280;46715;40.642;-7.920;2023-03-22T01:55:40;96292.84;;;11.57;100.00
60874;BME280;46715;40.642;-7.920;2023-03-22T01:57:54;96289.75;;;11.55;100.00
60874;BME280;46715;40.642;-7.920;2023-03-22T02:00:11;96288.94;;;11.55;100.00
60874;BME280;46715;40.642;-7.920;2023-03-22T02:02:27;96288.69;;;11.56;100.00
60874;BME280;46715;40.642;-7.920;2023-03-22T02:04:40;96287.91;;;11.56;100.00
60874;BME280;46715;40.642;-7.920;2023-03-22T02:06:43;96281.91;;;11.55;100.00
60874;BME280;46715;40.642;-7.920;2023-03-22T02:08:50;96283.72;;;11.55;100.00
60874;BME280;46715;40.642;-7.920;2023-03-22T02:10:54;96288.19;;;11.54;100.00
60874;BME280;46715;40.642;-7.920;2023-03-22T02:13:14;96284.28;;;11.52;100.00
60874;BME280;46715;40.642;-7.920;2023-03-22T02:15:51;96282.97;;;11.49;100.00
60874;BME280;46715;40.642;-7.920;2023-03-22T02:19:05;96277.28;;;11.42;100.00
60874;BME280;46715;40.642;-7.920;2023-03-22T02:23:58;96273.13;;;11.41;100.00
60874;BME280;46715;40.642;-7.920;2023-03-22T02:26:30;96289.88;;;11.35;100.00
60874;BME280;46715;40.642;-7.920;2023-03-22T02:46:57;96259.16;;;11.21;100.00
60874;BME280;46715;40.642;-7.920;2023-03-22T02:49:24;96261.75;;;11.21;100.00
60874;BME280;46715;40.642;-7.920;2023-03-22T02:53:45;96262.56;;;11.22;100.00
60874;BME280;46715;40.642;-7.920;2023-03-22T02:58:11;96274.28;;;11.24;100.00
60874;BME280;46715;40.642;-7.920;2023-03-22T03:00:16;96269.53;;;11.32;100.00
60874;BME280;46715;40.642;-7.920;2023-03-22T03:02:20;96261.69;;;11.37;100.00
60874;BME280;46715;40.642;-7.920;2023-03-22T03:04:29;96259.53;;;11.44;100.00
60874;BME280;46715;40.642;-7.920;2023-03-22T03:06:35;96253.06;;;11.36;100.00
60874;BME280;46715;40.642;-7.920;2023-03-22T03:08:40;96251.84;;;11.23;100.00
60874;BME280;46715;40.642;-7.920;2023-03-22T03:10:42;96257.59;;;11.20;100.00
60874;BME280;46715;40.642;-7.920;2023-03-22T03:12:43;96254.16;;;11.30;100.00
60874;BME280;46715;40.642;-7.920;2023-03-22T03:14:44;96259.41;;;11.25;100.00
60874;BME280;46715;40.642;-7.920;2023-03-22T03:16:48;96251.03;;;11.23;100.00
60874;BME280;46715;40.642;-7.920;2023-03-22T03:19:00;96246.16;;;11.16;100.00
60874;BME280;46715;40.642;-7.920;2023-03-22T03:21:47;96240.19;;;11.11;100.00
60874;BME280;46715;40.642;-7.920;2023-03-22T03:28:24;96245.97;;;11.02;100.00
60874;BME280;46715;40.642;-7.920;2023-03-22T03:30:43;96255.59;;;11.07;100.00
60874;BME280;46715;40.642;-7.920;2023-03-22T03:33:14;96251.94;;;11.08;100.00
60874;BME280;46715;40.642;-7.920;2023-03-22T03:35:26;96250.09;;;11.08;100.00
60874;BME280;46715;40.642;-7.920;2023-03-22T03:37:50;96252.19;;;11.06;100.00
60874;BME280;46715;40.642;-7.920;2023-03-22T03:39:59;96244.59;;;11.10;100.00
60874;BME280;46715;40.642;-7.920;2023-03-22T03:42:03;96236.28;;;11.03;100.00
60874;BME280;46715;40.642;-7.920;2023-03-22T03:44:06;96227.72;;;10.97;100.00
60874;BME280;46715;40.642;-7.920;2023-03-22T03:46:08;96217.56;;;10.96;100.00
60874;BME280;46715;40.642;-7.920;2023-03-22T03:48:14;96217.47;;;11.06;100.00
60874;BME280;46715;40.642;-7.920;2023-03-22T03:50:17;96216.50;;;10.97;100.00
60874;BME280;46715;40.642;-7.920;2023-03-22T03:52:18;96224.59;;;10.95;100.00
60874;BME280;46715;40.642;-7.920;2023-03-22T03:54:24;96217.31;;;10.92;100.00
60874;BME280;46715;40.642;-7.920;2023-03-22T03:56:25;96220.19;;;10.90;100.00
60874;BME280;46715;40.642;-7.920;2023-03-22T03:58:33;96223.53;;;10.96;100.00
60874;BME280;46715;40.642;-7.920;2023-03-22T04:00:35;96217.00;;;10.99;100.00
60874;BME280;46715;40.642;-7.920;2023-03-22T04:03:03;96215.22;;;10.94;100.00
60874;BME280;46715;40.642;-7.920;2023-03-22T04:05:18;96215.00;;;10.85;100.00
60874;BME280;46715;40.642;-7.920;2023-03-22T04:07:19;96220.19;;;10.85;100.00
60874;BME280;46715;40.642;-7.920;2023-03-22T04:09:20;96224.38;;;10.86;100.00
60874;BME280;46715;40.642;-7.920;2023-03-22T04:11:25;96224.38;;;10.91;100.00
60874;BME280;46715;40.642;-7.920;2023-03-22T04:13:31;96217.09;;;10.88;100.00
60874;BME280;46715;40.642;-7.920;2023-03-22T04:15:37;96214.50;;;10.83;100.00
60874;BME280;46715;40.642;-7.920;2023-03-22T04:17:41;96223.63;;;10.86;100.00
60874;BME280;46715;40.642;-7.920;2023-03-22T04:19:43;96236.59;;;10.91;100.00
60874;BME280;46715;40.642;-7.920;2023-03-22T04:21:47;96231.38;;;10.91;100.00
60874;BME280;46715;40.642;-7.920;2023-03-22T04:23:48;96229.06;;;10.89;100.00
60874;BME280;46715;40.642;-7.920;2023-03-22T04:25:50;96226.44;;;10.89;100.00
60874;BME280;46715;40.642;-7.920;2023-03-22T04:28:03;96228.78;;;10.91;100.00
60874;BME280;46715;40.642;-7.920;2023-03-22T04:30:08;96237.13;;;10.93;100.00
60874;BME280;46715;40.642;-7.920;2023-03-22T04:32:37;96237.44;;;10.81;100.00
60874;BME280;46715;40.642;-7.920;2023-03-22T04:34:39;96231.97;;;10.83;100.00
60874;BME280;46715;40.642;-7.920;2023-03-22T04:36:45;96250.31;;;10.62;100.00
60874;BME280;46715;40.642;-7.920;2023-03-22T04:38:53;96254.72;;;10.72;100.00
60874;BME280;46715;40.642;-7.920;2023-03-22T04:40:58;96251.56;;;10.80;100.00
60874;BME280;46715;40.642;-7.920;2023-03-22T04:43:08;96243.44;;;10.87;100.00
60874;BME280;46715;40.642;-7.920;2023-03-22T04:45:27;96223.63;;;10.86;100.00
60874;BME280;46715;40.642;-7.920;2023-03-22T04:47:32;96225.13;;;10.92;100.00
60874;BME280;46715;40.642;-7.920;2023-03-22T04:49:36;96232.00;;;10.78;100.00
60874;BME280;46715;40.642;-7.920;2023-03-22T04:51:37;96250.25;;;10.78;100.00
60874;BME280;46715;40.642;-7.920;2023-03-22T04:53:51;96245.25;;;10.81;100.00
60874;BME280;46715;40.642;-7.920;2023-03-22T04:55:54;96241.69;;;10.72;100.00
60874;BME280;46715;40.642;-7.920;2023-03-22T04:58:00;96256.56;;;10.66;100.00
60874;BME280;46715;40.642;-7.920;2023-03-22T05:00:00;96252.16;;;10.56;100.00
60874;BME280;46715;40.642;-7.920;2023-03-22T05:02:02;96260.81;;;10.47;100.00
60874;BME280;46715;40.642;-7.920;2023-03-22T05:04:10;96244.91;;;10.48;100.00
60874;BME280;46715;40.642;-7.920;2023-03-22T05:06:11;96251.41;;;10.46;100.00
60874;BME280;46715;40.642;-7.920;2023-03-22T05:08:35;96244.59;;;10.60;100.00
60874;BME280;46715;40.642;-7.920;2023-03-22T05:10:38;96240.91;;;10.66;100.00
60874;BME280;46715;40.642;-7.920;2023-03-22T05:12:40;96230.50;;;10.61;100.00
60874;BME280;46715;40.642;-7.920;2023-03-22T05:15:07;96233.31;;;10.70;100.00
60874;BME280;46715;40.642;-7.920;2023-03-22T05:17:12;96233.09;;;10.66;100.00
60874;BME280;46715;40.642;-7.920;2023-03-22T05:19:13;96226.31;;;10.60;100.00
60874;BME280;46715;40.642;-7.920;2023-03-22T05:21:18;96220.06;;;10.61;100.00
60874;BME280;46715;40.642;-7.920;2023-03-22T05:23:26;96222.47;;;10.52;100.00
60874;BME280;46715;40.642;-7.920;2023-03-22T05:25:30;96222.94;;;10.60;100.00
60874;BME280;46715;40.642;-7.920;2023-03-22T05:27:31;96228.09;;;10.70;100.00
60874;BME280;46715;40.642;-7.920;2023-03-22T05:29:54;96227.81;;;10.77;100.00
60874;BME280;46715;40.642;-7.920;2023-03-22T05:32:01;96213.97;;;10.81;100.00
60874;BME280;46715;40.642;-7.920;2023-03-22T05:34:03;96224.97;;;10.73;100.00
60874;BME280;46715;40.642;-7.920;2023-03-22T05:36:08;96224.47;;;10.71;100.00
60874;BME280;46715;40.642;-7.920;2023-03-22T05:38:19;96231.25;;;10.67;100.00
60874;BME280;46715;40.642;-7.920;2023-03-22T05:40:26;96238.31;;;10.61;100.00
60874;BME280;46715;40.642;-7.920;2023-03-22T05:42:27;96252.50;;;10.34;100.00
60874;BME280;46715;40.642;-7.920;2023-03-22T05:44:28;96251.22;;;9.85;100.00
60874;BME280;46715;40.642;-7.920;2023-03-22T05:46:42;96251.00;;;9.82;100.00
60874;BME280;46715;40.642;-7.920;2023-03-22T05:49:06;96252.81;;;9.61;100.00
60874;BME280;46715;40.642;-7.920;2023-03-22T05:51:09;96242.94;;;9.52;100.00
60874;BME280;46715;40.642;-7.920;2023-03-22T05:53:10;96247.34;;;9.52;100.00
60874;BME280;46715;40.642;-7.920;2023-03-22T05:55:33;96253.88;;;9.65;100.00
60874;BME280;46715;40.642;-7.920;2023-03-22T05:57:38;96248.38;;;9.71;100.00
60874;BME280;46715;40.642;-7.920;2023-03-22T05:59:40;96245.53;;;9.83;100.00
60874;BME280;46715;40.642;-7.920;2023-03-22T06:01:44;96242.41;;;9.76;100.00
60874;BME280;46715;40.642;-7.920;2023-03-22T06:03:53;96239.28;;;9.79;100.00
60874;BME280;46715;40.642;-7.920;2023-03-22T06:06:04;96239.53;;;9.78;100.00
60874;BME280;46715;40.642;-7.920;2023-03-22T06:08:15;96233.28;;;9.53;100.00
60874;BME280;46715;40.642;-7.920;2023-03-22T06:10:17;96237.19;;;9.71;100.00
60874;BME280;46715;40.642;-7.920;2023-03-22T06:12:18;96236.41;;;9.76;100.00
60874;BME280;46715;40.642;-7.920;2023-03-22T06:14:25;96246.56;;;9.72;100.00
60874;BME280;46715;40.642;-7.920;2023-03-22T06:16:39;96243.19;;;9.77;100.00
60874;BME280;46715;40.642;-7.920;2023-03-22T06:18:40;96246.28;;;9.63;100.00
60874;BME280;46715;40.642;-7.920;2023-03-22T06:20:44;96243.97;;;9.46;100.00
60874;BME280;46715;40.642;-7.920;2023-03-22T06:22:51;96249.16;;;9.46;100.00
60874;BME280;46715;40.642;-7.920;2023-03-22T06:24:52;96256.44;;;9.24;100.00
60874;BME280;46715;40.642;-7.920;2023-03-22T06:27:03;96254.84;;;9.23;100.00
60874;BME280;46715;40.642;-7.920;2023-03-22T06:29:04;96248.84;;;9.12;100.00
60874;BME280;46715;40.642;-7.920;2023-03-22T06:31:08;96246.50;;;9.00;100.00
60874;BME280;46715;40.642;-7.920;2023-03-22T06:33:30;96238.41;;;8.86;100.00
60874;BME280;46715;40.642;-7.920;2023-03-22T06:35:37;96252.47;;;9.00;100.00
60874;BME280;46715;40.642;-7.920;2023-03-22T06:37:39;96242.56;;;8.87;100.00
60874;BME280;46715;40.642;-7.920;2023-03-22T06:39:41;96240.19;;;8.85;100.00
60874;BME280;46715;40.642;-7.920;2023-03-22T06:41:43;96246.16;;;8.76;100.00
60874;BME280;46715;40.642;-7.920;2023-03-22T06:43:44;96242.81;;;8.80;100.00
60874;BME280;46715;40.642;-7.920;2023-03-22T06:46:03;96249.63;;;9.17;100.00
60874;BME280;46715;40.642;-7.920;2023-03-22T06:48:10;96248.13;;;9.37;100.00
60874;BME280;46715;40.642;-7.920;2023-03-22T06:50:31;96259.00;;;9.08;100.00
60874;BME280;46715;40.642;-7.920;2023-03-22T06:52:40;96262.63;;;9.07;100.00
60874;BME280;46715;40.642;-7.920;2023-03-22T06:54:41;96260.88;;;9.23;100.00
60874;BME280;46715;40.642;-7.920;2023-03-22T06:56:43;96262.41;;;9.19;100.00
60874;BME280;46715;40.642;-7.920;2023-03-22T06:58:44;96260.88;;;9.23;100.00
60874;BME280;46715;40.642;-7.920;2023-03-22T07:00:46;96263.75;;;9.37;100.00
60874;BME280;46715;40.642;-7.920;2023-03-22T07:02:48;96263.44;;;9.28;100.00
60874;BME280;46715;40.642;-7.920;2023-03-22T07:04:59;96268.41;;;9.25;100.00
60874;BME280;46715;40.642;-7.920;2023-03-22T07:07:00;96279.34;;;9.37;100.00
60874;BME280;46715;40.642;-7.920;2023-03-22T07:09:03;96275.44;;;9.34;100.00
60874;BME280;46715;40.642;-7.920;2023-03-22T07:11:08;96276.19;;;9.19;100.00
60874;BME280;46715;40.642;-7.920;2023-03-22T07:13:09;96277.47;;;9.17;100.00
60874;BME280;46715;40.642;-7.920;2023-03-22T07:15:11;96278.25;;;9.07;100.00
60874;BME280;46715;40.642;-7.920;2023-03-22T07:17:32;96280.63;;;9.19;100.00
60874;BME280;46715;40.642;-7.920;2023-03-22T07:19:33;96284.03;;;9.25;100.00
60874;BME280;46715;40.642;-7.920;2023-03-22T07:21:40;96288.13;;;9.10;100.00
60874;BME280;46715;40.642;-7.920;2023-03-22T07:23:44;96281.13;;;9.16;100.00
60874;BME280;46715;40.642;-7.920;2023-03-22T07:25:48;96283.72;;;9.16;100.00
60874;BME280;46715;40.642;-7.920;2023-03-22T07:27:59;96289.72;;;9.21;100.00
60874;BME280;46715;40.642;-7.920;2023-03-22T07:30:05;96285.56;;;9.26;100.00
60874;BME280;46715;40.642;-7.920;2023-03-22T07:32:10;96288.19;;;9.46;100.00
60874;BME280;46715;40.642;-7.920;2023-03-22T07:34:27;96285.63;;;9.67;100.00
60874;BME280;46715;40.642;-7.920;2023-03-22T07:36:35;96288.47;;;9.60;100.00
60874;BME280;46715;40.642;-7.920;2023-03-22T07:38:39;96287.44;;;9.56;100.00
60874;BME280;46715;40.642;-7.920;2023-03-22T07:40:45;96292.66;;;9.77;100.00
60874;BME280;46715;40.642;-7.920;2023-03-22T07:42:47;96293.44;;;9.72;100.00
60874;BME280;46715;40.642;-7.920;2023-03-22T07:45:07;96290.31;;;9.80;100.00
60874;BME280;46715;40.642;-7.920;2023-03-22T07:47:17;96293.97;;;9.84;100.00
60874;BME280;46715;40.642;-7.920;2023-03-22T07:49:53;96303.59;;;9.94;100.00
60874;BME280;46715;40.642;-7.920;2023-03-22T07:52:01;96300.47;;;10.02;100.00
60874;BME280;46715;40.642;-7.920;2023-03-22T07:54:02;96299.41;;;10.03;100.00
60874;BME280;46715;40.642;-7.920;2023-03-22T07:56:03;96302.53;;;10.11;100.00
60874;BME280;46715;40.642;-7.920;2023-03-22T07:58:04;96303.06;;;10.18;100.00
60874;BME280;46715;40.642;-7.920;2023-03-22T08:00:07;96304.06;;;10.27;100.00
60874;BME280;46715;40.642;-7.920;2023-03-22T08:02:18;96298.63;;;10.39;100.00
60874;BME280;46715;40.642;-7.920;2023-03-22T08:04:24;96308.25;;;10.44;99.87
60874;BME280;46715;40.642;-7.920;2023-03-22T08:06:42;96297.81;;;10.54;99.55
60874;BME280;46715;40.642;-7.920;2023-03-22T08:08:44;96299.59;;;10.69;98.71
60874;BME280;46715;40.642;-7.920;2023-03-22T08:10:48;96290.19;;;10.68;98.23
60874;BME280;46715;40.642;-7.920;2023-03-22T08:12:50;96285.78;;;10.58;97.39
60874;BME280;46715;40.642;-7.920;2023-03-22T08:14:56;96276.97;;;10.28;96.98
60874;BME280;46715;40.642;-7.920;2023-03-22T08:16:59;96284.50;;;10.45;97.48
60874;BME280;46715;40.642;-7.920;2023-03-22T08:19:01;96283.97;;;10.58;95.74
60874;BME280;46715;40.642;-7.920;2023-03-22T08:21:04;96277.94;;;10.68;94.98
60874;BME280;46715;40.642;-7.920;2023-03-22T08:23:07;96281.81;;;10.76;95.61
60874;BME280;46715;40.642;-7.920;2023-03-22T08:25:17;96282.84;;;10.80;95.78
60874;BME280;46715;40.642;-7.920;2023-03-22T08:27:19;96276.00;;;10.95;95.69
60874;BME280;46715;40.642;-7.920;2023-03-22T08:29:23;96288.19;;;11.09;95.20
60874;BME280;46715;40.642;-7.920;2023-03-22T08:31:24;96288.72;;;11.06;94.20
60874;BME280;46715;40.642;-7.920;2023-03-22T08:33:25;96286.81;;;11.22;93.98
60874;BME280;46715;40.642;-7.920;2023-03-22T08:35:27;96290.19;;;11.23;93.47
60874;BME280;46715;40.642;-7.920;2023-03-22T08:37:28;96291.53;;;11.20;93.01
60874;BME280;46715;40.642;-7.920;2023-03-22T08:39:31;96297.53;;;11.16;92.59
60874;BME280;46715;40.642;-7.920;2023-03-22T08:41:54;96284.75;;;11.19;92.54
60874;BME280;46715;40.642;-7.920;2023-03-22T08:43:57;96291.03;;;11.13;93.35
60874;BME280;46715;40.642;-7.920;2023-03-22T08:45:58;96298.53;;;11.25;94.08
60874;BME280;46715;40.642;-7.920;2023-03-22T08:47:59;96306.28;;;11.40;92.46
60874;BME280;46715;40.642;-7.920;2023-03-22T08:50:03;96304.50;;;11.31;93.52
60874;BME280;46715;40.642;-7.920;2023-03-22T08:52:24;96307.88;;;11.36;93.91
60874;BME280;46715;40.642;-7.920;2023-03-22T08:54:38;96310.50;;;11.31;94.36
60874;BME280;46715;40.642;-7.920;2023-03-22T08:56:39;96311.00;;;11.38;95.05
60874;BME280;46715;40.642;-7.920;2023-03-22T08:59:19;96321.00;;;11.66;93.90
60874;BME280;46715;40.642;-7.920;2023-03-22T09:01:39;96319.94;;;11.27;93.69
60874;BME280;46715;40.642;-7.920;2023-03-22T09:03:44;96319.16;;;11.26;93.98
60874;BME280;46715;40.642;-7.920;2023-03-22T09:05:45;96328.09;;;11.15;95.02
60874;BME280;46715;40.642;-7.920;2023-03-22T09:07:50;96322.31;;;11.23;94.92
60874;BME280;46715;40.642;-7.920;2023-03-22T09:10:07;96325.31;;;11.46;93.14
60874;BME280;46715;40.642;-7.920;2023-03-22T09:12:11;96327.16;;;11.46;93.12
60874;BME280;46715;40.642;-7.920;2023-03-22T09:14:12;96330.25;;;11.48;94.05
60874;BME280;46715;40.642;-7.920;2023-03-22T09:16:13;96332.84;;;11.53;94.69
60874;BME280;46715;40.642;-7.920;2023-03-22T09:18:15;96319.03;;;10.97;95.89
60874;BME280;46715;40.642;-7.920;2023-03-22T09:20:16;96339.34;;;11.11;97.48
60874;BME280;46715;40.642;-7.920;2023-03-22T09:22:20;96333.75;;;11.33;96.56
60874;BME280;46715;40.642;-7.920;2023-03-22T09:24:23;96327.91;;;11.46;95.26
60874;BME280;46715;40.642;-7.920;2023-03-22T09:26:28;96342.78;;;11.51;93.47
60874;BME280;46715;40.642;-7.920;2023-03-22T09:28:29;96349.16;;;11.74;92.68
60874;BME280;46715;40.642;-7.920;2023-03-22T09:30:34;96347.44;;;11.93;89.99
60874;BME280;46715;40.642;-7.920;2023-03-22T09:32:37;96342.56;;;12.21;90.82
60874;BME280;46715;40.642;-7.920;2023-03-22T09:34:39;96339.59;;;12.57;89.46
60874;BME280;46715;40.642;-7.920;2023-03-22T09:36:41;96331.16;;;12.90;87.26
60874;BME280;46715;40.642;-7.920;2023-03-22T09:38:42;96330.69;;;13.07;85.14
60874;BME280;46715;40.642;-7.920;2023-03-22T09:41:04;96328.44;;;13.19;83.50
60874;BME280;46715;40.642;-7.920;2023-03-22T09:43:11;96328.47;;;12.95;81.74
60874;BME280;46715;40.642;-7.920;2023-03-22T09:45:20;96324.50;;;13.22;81.52
60874;BME280;46715;40.642;-7.920;2023-03-22T09:47:33;96324.97;;;13.48;79.57
60874;BME280;46715;40.642;-7.920;2023-03-22T09:49:39;96327.50;;;13.72;79.06
60874;BME280;46715;40.642;-7.920;2023-03-22T09:51:46;96323.34;;;13.85;76.61
60874;BME280;46715;40.642;-7.920;2023-03-22T09:53:48;96334.75;;;13.94;76.61
60874;BME280;46715;40.642;-7.920;2023-03-22T09:56:21;96328.25;;;13.73;77.03
60874;BME280;46715;40.642;-7.920;2023-03-22T09:58:31;96339.50;;;14.25;74.29
60874;BME280;46715;40.642;-7.920;2023-03-22T10:00:47;96344.84;;;13.68;75.85
60874;BME280;46715;40.642;-7.920;2023-03-22T10:05:56;96353.84;;;12.17;81.47
60874;BME280;46715;40.642;-7.920;2023-03-22T10:10:24;96355.25;;;13.54;77.24
60874;BME280;46715;40.642;-7.920;2023-03-22T10:12:27;96354.09;;;13.98;75.60
60874;BME280;46715;40.642;-7.920;2023-03-22T10:14:34;96341.72;;;14.93;72.12
60874;BME280;46715;40.642;-7.920;2023-03-22T10:16:38;96332.94;;;15.98;68.76
60874;BME280;46715;40.642;-7.920;2023-03-22T10:18:50;96319.00;;;16.92;63.09
60874;BME280;46715;40.642;-7.920;2023-03-22T10:23:05;96321.25;;;17.95;58.14
60874;BME280;46715;40.642;-7.920;2023-03-22T10:25:18;96313.78;;;17.45;57.64
60874;BME280;46715;40.642;-7.920;2023-03-22T10:27:22;96316.75;;;17.43;58.79
60874;BME280;46715;40.642;-7.920;2023-03-22T10:29:33;96308.50;;;17.71;56.96
60874;BME280;46715;40.642;-7.920;2023-03-22T10:31:42;96314.41;;;17.50;57.77
60874;BME280;46715;40.642;-7.920;2023-03-22T10:36:11;96302.59;;;16.95;60.77
60874;BME280;46715;40.642;-7.920;2023-03-22T10:38:26;96318.88;;;17.24;59.54
60874;BME280;46715;40.642;-7.920;2023-03-22T10:40:35;96300.75;;;17.13;59.84
60874;BME280;46715;40.642;-7.920;2023-03-22T10:42:38;96316.72;;;17.17;60.75
60874;BME280;46715;40.642;-7.920;2023-03-22T10:44:55;96322.50;;;16.79;61.67
60874;BME280;46715;40.642;-7.920;2023-03-22T10:46:59;96325.75;;;16.13;62.51
60874;BME280;46715;40.642;-7.920;2023-03-22T10:49:17;96324.44;;;16.01;64.09
60874;BME280;46715;40.642;-7.920;2023-03-22T10:51:27;96328.75;;;16.20;63.00
60874;BME280;46715;40.642;-7.920;2023-03-22T10:53:46;96338.13;;;16.12;63.99
60874;BME280;46715;40.642;-7.920;2023-03-22T10:55:47;96332.97;;;16.30;62.05
60874;BME280;46715;40.642;-7.920;2023-03-22T11:00:14;96329.06;;;16.59;62.68
60874;BME280;46715;40.642;-7.920;2023-03-22T11:04:29;96339.94;;;15.80;65.75
60874;BME280;46715;40.642;-7.920;2023-03-22T11:06:32;96348.75;;;16.07;67.29
60874;BME280;46715;40.642;-7.920;2023-03-22T11:08:55;96343.75;;;16.51;65.51
60874;BME280;46715;40.642;-7.920;2023-03-22T11:10:57;96337.75;;;16.59;63.02
60874;BME280;46715;40.642;-7.920;2023-03-22T11:15:24;96324.75;;;17.03;61.29
60874;BME280;46715;40.642;-7.920;2023-03-22T11:17:25;96330.63;;;17.09;60.76
60874;BME280;46715;40.642;-7.920;2023-03-22T11:19:31;96308.47;;;16.52;61.43
60874;BME280;46715;40.642;-7.920;2023-03-22T11:21:33;96332.25;;;16.38;64.14
60874;BME280;46715;40.642;-7.920;2023-03-22T11:23:36;96333.84;;;16.88;64.33
60874;BME280;46715;40.642;-7.920;2023-03-22T11:25:46;96318.44;;;17.30;61.91
60874;BME280;46715;40.642;-7.920;2023-03-22T11:27:52;96317.75;;;16.98;62.25
60874;BME280;46715;40.642;-7.920;2023-03-22T11:30:07;96315.41;;;16.88;61.14
60874;BME280;46715;40.642;-7.920;2023-03-22T11:32:29;96314.38;;;16.98;62.55
60874;BME280;46715;40.642;-7.920;2023-03-22T11:34:30;96306.66;;;17.19;62.93
60874;BME280;46715;40.642;-7.920;2023-03-22T11:36:48;96300.16;;;17.69;62.39
60874;BME280;46715;40.642;-7.920;2023-03-22T11:39:00;96288.69;;;17.56;58.40
60874;BME280;46715;40.642;-7.920;2023-03-22T11:41:32;96296.28;;;17.58;59.55
60874;BME280;46715;40.642;-7.920;2023-03-22T11:43:44;96292.69;;;17.18;58.85
60874;BME280;46715;40.642;-7.920;2023-03-22T11:45:50;96299.69;;;17.32;59.44
60874;BME280;46715;40.642;-7.920;2023-03-22T11:47:54;96297.50;;;17.69;58.88
60874;BME280;46715;40.642;-7.920;2023-03-22T11:50:08;96297.47;;;17.86;58.58
60874;BME280;46715;40.642;-7.920;2023-03-22T11:52:27;96299.50;;;18.07;56.29
60874;BME280;46715;40.642;-7.920;2023-03-22T11:54:34;96293.56;;;18.19;55.15